Time;durP1;ratioP1;P1;durP2;ratioP2;P2;SDS_P1;SDS_P2;PMS_P1;PMS_P2;Temp;Humidity;BMP_temperature;BMP_pressure;BME280_temperature;BME280_humidity;BME280_pressure;Samples;Min_cycle;Max_cycle;Signal;HPM_P1;HPM_P2
2022/02/28 00:11:15;;;;;;;75.37;25.07;;;;;;;3.35;64.42;102494.37;713136;1174;114632;-77
2022/02/28 00:26:17;;;;;;;53.67;19.00;;;;;;;3.32;64.89;102483.16;713569;1174;115671;-79
2022/02/28 00:41:20;;;;;;;38.70;14.75;;;;;;;3.35;64.64;102481.39;714253;1174;114069;-79
2022/02/28 00:56:22;;;;;;;42.18;15.28;;;;;;;3.42;65.62;102468.25;713823;1173;114294;-79
2022/02/28 01:11:24;;;;;;;49.85;18.25;;;;;;;3.39;65.77;102468.33;713974;1173;113792;-78
2022/02/28 01:26:26;;;;;;;44.48;15.48;;;;;;;3.39;66.96;102446.70;713910;1173;115557;-81
2022/02/28 01:41:29;;;;;;;37.63;14.25;;;;;;;3.33;67.16;102437.33;715344;1174;114083;-79
2022/02/28 01:56:31;;;;;;;41.50;17.70;;;;;;;3.23;67.13;102438.42;714024;1174;115396;-78
2022/02/28 02:11:35;;;;;;;26.00;12.10;;;;;;;3.17;66.91;102429.05;713521;1173;114680;-78
2022/02/28 02:26:39;;;;;;;41.95;15.55;;;;;;;2.95;67.09;102433.85;713811;1173;115544;-78
2022/02/28 02:41:43;;;;;;;23.13;9.60;;;;;;;2.62;68.31;102457.84;714169;1173;114278;-77
2022/02/28 02:56:48;;;;;;;44.80;15.45;;;;;;;2.39;68.71;102458.31;713740;1174;114696;-77
2022/02/28 03:11:53;;;;;;;33.40;12.60;;;;;;;2.24;69.18;102461.17;713975;1174;114671;-78
2022/02/28 03:26:58;;;;;;;62.40;22.23;;;;;;;2.37;69.25;102446.27;713885;1174;115655;-79
2022/02/28 03:42:02;;;;;;;61.20;19.55;;;;;;;2.16;70.01;102446.64;714027;1174;114930;-79
2022/02/28 03:57:06;;;;;;;18.65;9.33;;;;;;;1.92;70.04;102452.25;713833;1174;114887;-78
2022/02/28 04:12:09;;;;;;;26.30;8.65;;;;;;;1.60;69.86;102454.48;717553;1165;113913;-80
2022/02/28 04:27:11;;;;;;;31.25;11.35;;;;;;;1.32;69.73;102469.58;714084;1173;114797;-79
2022/02/28 04:42:13;;;;;;;54.40;18.18;;;;;;;1.04;70.27;102463.92;714483;1174;114397;-79
2022/02/28 04:57:16;;;;;;;55.53;20.78;;;;;;;0.80;69.72;102458.19;713826;1174;115806;-78
2022/02/28 05:12:18;;;;;;;61.03;21.73;;;;;;;0.65;69.90;102478.17;714190;1174;114242;-73
2022/02/28 05:27:20;;;;;;;83.78;32.25;;;;;;;0.56;70.53;102470.52;714248;1167;115978;-73
2022/02/28 05:42:22;;;;;;;49.50;19.03;;;;;;;0.48;70.83;102491.27;713891;1174;115711;-73
2022/02/28 05:57:25;;;;;;;128.15;41.28;;;;;;;0.45;70.50;102505.92;713571;1174;114362;-74
2022/02/28 06:12:27;;;;;;;236.77;69.93;;;;;;;0.53;71.56;102517.06;714211;1174;115986;-72
2022/02/28 06:27:52;;;;;;;174.53;53.47;;;;;;;0.62;71.21;102518.67;714059;1174;116060;-71
2022/02/28 06:42:57;;;;;;;92.83;33.40;;;;;;;1.41;71.54;102544.46;713931;1173;114787;-79
2022/02/28 06:58:01;;;;;;;86.27;31.10;;;;;;;2.24;70.65;102564.78;714484;1174;114233;-78
2022/02/28 07:13:06;;;;;;;86.45;34.00;;;;;;;3.02;69.89;102591.02;715023;1174;114852;-80
2022/02/28 07:28:08;;;;;;;99.85;39.40;;;;;;;3.77;67.47;102593.77;715448;1174;115534;-75
2022/02/28 07:43:11;;;;;;;28.90;15.70;;;;;;;4.36;66.13;102601.95;714217;1174;114190;-78
2022/02/28 07:58:13;;;;;;;22.58;10.80;;;;;;;5.78;63.92;102605.80;714058;1174;114789;-84
2022/02/28 08:13:15;;;;;;;35.05;12.20;;;;;;;6.67;61.34;102609.90;715321;1174;115027;-81
2022/02/28 08:28:19;;;;;;;35.17;12.93;;;;;;;7.23;59.70;102628.81;715310;1174;116163;-80
2022/02/28 08:43:21;;;;;;;47.97;20.07;;;;;;;7.91;57.08;102626.25;719141;1174;115025;-83
2022/02/28 08:58:23;;;;;;;48.40;13.90;;;;;;;9.00;56.72;102628.73;714708;1174;114656;-84
2022/02/28 09:13:26;;;;;;;198.00;59.60;;;;;;;9.02;54.29;102632.13;715513;1174;115962;-80
2022/02/28 09:28:28;;;;;;;189.60;50.20;;;;;;;9.17;52.37;102625.34;713913;1174;115908;-76
2022/02/28 09:43:32;;;;;;;84.98;24.08;;;;;;;9.19;50.12;102635.78;715148;1174;115398;-75
2022/02/28 09:58:35;;;;;;;37.07;11.47;;;;;;;9.66;48.62;102643.23;713756;1174;114142;-78
2022/02/28 10:13:41;;;;;;;18.75;7.58;;;;;;;9.63;46.62;102646.84;714474;1174;115012;-77
2022/02/28 10:28:45;;;;;;;22.37;9.73;;;;;;;9.85;45.46;102643.20;714263;1174;114023;-79
2022/02/28 10:43:48;;;;;;;18.95;9.58;;;;;;;10.31;44.88;102648.00;714122;1173;113928;-75
2022/02/28 10:58:51;;;;;;;37.30;10.97;;;;;;;10.69;44.52;102652.27;713741;1174;114480;-69
2022/02/28 11:13:54;;;;;;;19.00;8.85;;;;;;;10.89;43.45;102640.77;713848;1174;115456;-75
2022/02/28 11:28:58;;;;;;;22.15;9.45;;;;;;;11.41;43.55;102650.27;716028;1174;114936;-75
2022/02/28 11:44:02;;;;;;;11.20;4.50;;;;;;;11.89;42.95;102647.64;714906;1174;115366;-75
2022/02/28 11:59:18;;;;;;;41.95;15.25;;;;;;;11.90;42.38;102649.34;713677;1174;114826;-74
2022/02/28 12:14:20;;;;;;;26.45;13.25;;;;;;;11.77;41.94;102642.16;715311;1174;115678;-73
2022/02/28 12:29:30;;;;;;;23.75;7.85;;;;;;;12.44;40.89;102636.59;713966;1174;115387;-74
2022/02/28 12:44:33;;;;;;;25.10;10.68;;;;;;;13.20;40.69;102636.52;713815;1173;115909;-74
2022/02/28 12:59:38;;;;;;;14.48;7.35;;;;;;;13.40;40.17;102643.20;713904;1174;115961;-73
2022/02/28 13:14:44;;;;;;;5.75;4.03;;;;;;;13.93;39.81;102625.72;713673;1174;115808;-78
2022/02/28 13:29:46;;;;;;;12.75;8.55;;;;;;;14.40;39.25;102623.52;713667;1174;115641;-76
2022/02/28 13:44:51;;;;;;;14.98;5.53;;;;;;;21.18;38.09;102627.84;713970;1174;115328;-74
2022/02/28 14:00:13;;;;;;;12.60;5.78;;;;;;;25.76;33.96;102624.88;716357;1173;115888;-75
2022/02/28 14:15:25;;;;;;;26.53;12.25;;;;;;;27.82;32.22;102621.63;713854;1174;114557;-75
2022/02/28 14:30:28;;;;;;;22.78;11.70;;;;;;;28.79;31.18;102621.91;714757;1174;114891;-76
2022/02/28 14:45:31;;;;;;;271.10;145.93;;;;;;;27.70;31.21;102615.92;713966;1174;115055;-75
2022/02/28 15:00:33;;;;;;;26.23;13.00;;;;;;;27.61;29.91;102595.52;714213;1174;115645;-75
2022/02/28 15:15:37;;;;;;;14.25;7.78;;;;;;;20.28;31.12;102582.09;713694;1174;114909;-74
2022/02/28 15:30:39;;;;;;;8.30;3.95;;;;;;;16.49;33.12;102574.22;713538;1174;114758;-76
2022/02/28 15:45:41;;;;;;;5.93;3.28;;;;;;;20.43;32.67;102569.17;713412;1174;114220;-76
2022/02/28 16:00:47;;;;;;;21.55;10.68;;;;;;;19.17;32.23;102570.86;713596;1174;114120;-76
2022/02/28 16:15:50;;;;;;;10.38;5.55;;;;;;;13.14;33.20;102559.53;713521;1174;115361;-75
2022/02/28 16:30:58;;;;;;;408.47;97.13;;;;;;;9.35;35.90;102557.34;714172;1173;115807;-76
2022/02/28 16:46:00;;;;;;;181.08;52.38;;;;;;;7.45;39.38;102568.80;714242;1167;115081;-75
2022/02/28 17:01:04;;;;;;;172.90;57.60;;;;;;;6.40;40.63;102583.00;713863;1174;115025;-74
2022/02/28 17:16:07;;;;;;;405.25;155.40;;;;;;;5.70;41.35;102584.34;714290;1174;115436;-75
2022/02/28 17:31:10;;;;;;;347.30;95.13;;;;;;;5.06;42.67;102598.38;713897;1174;116091;-75
2022/02/28 17:46:14;;;;;;;193.93;63.80;;;;;;;4.54;45.30;102598.01;714183;1174;115538;-75
2022/02/28 18:01:17;;;;;;;35.80;16.07;;;;;;;4.01;45.79;102625.26;714231;1174;115758;-75
2022/02/28 18:16:20;;;;;;;83.13;22.60;;;;;;;3.58;46.10;102615.85;713975;1174;115761;-75
2022/02/28 18:31:23;;;;;;;197.85;55.60;;;;;;;3.31;47.79;102625.90;714122;1173;114698;-75
2022/02/28 18:46:25;;;;;;;624.18;186.10;;;;;;;3.00;48.47;102614.39;714015;1174;115150;-74
2022/02/28 19:01:28;;;;;;;629.38;208.23;;;;;;;2.74;48.87;102625.23;713795;1174;115405;-75
2022/02/28 19:16:31;;;;;;;66.90;32.73;;;;;;;2.39;49.75;102616.34;713910;1174;114954;-74
2022/02/28 19:31:34;;;;;;;503.75;161.33;;;;;;;2.15;51.24;102625.34;713536;1174;114176;-75
2022/02/28 19:46:41;;;;;;;478.60;150.57;;;;;;;1.85;52.05;102624.06;713650;1174;115128;-74
2022/02/28 20:01:44;;;;;;;537.08;174.30;;;;;;;1.61;52.16;102636.45;713883;1174;115288;-74
2022/02/28 20:16:49;;;;;;;199.83;65.37;;;;;;;1.59;52.65;102639.06;713506;1174;115296;-74
2022/02/28 20:31:54;;;;;;;;;;;;;;;1.28;53.12;102641.16;715904;1174;116139;-74
2022/02/28 20:46:56;;;;;;;274.30;87.80;;;;;;;1.10;54.12;102643.09;714772;1174;101145;-74
2022/02/28 21:01:59;;;;;;;179.87;57.93;;;;;;;0.95;55.10;102648.41;713705;1174;115681;-74
2022/02/28 21:17:02;;;;;;;61.93;23.67;;;;;;;0.84;55.23;102653.69;713651;1174;114903;-73
2022/02/28 21:32:06;;;;;;;71.00;28.43;;;;;;;0.72;55.59;102658.98;714122;1174;114890;-74
2022/02/28 21:47:10;;;;;;;86.08;32.18;;;;;;;0.44;55.62;102649.72;713794;1173;114376;-74
2022/02/28 22:02:15;;;;;;;180.40;56.13;;;;;;;0.26;56.63;102647.27;713186;1173;115189;-74
2022/02/28 22:17:18;;;;;;;166.98;48.75;;;;;;;0.09;57.54;102653.42;713064;1174;114799;-74
2022/02/28 22:32:21;;;;;;;186.93;57.73;;;;;;;-0.15;57.56;102648.40;713093;1174;115793;-76
2022/02/28 22:47:23;;;;;;;147.48;47.38;;;;;;;-0.42;58.48;102645.95;713186;1174;116119;-74
2022/02/28 23:33:08;;;;;;;164.45;50.73;;;;;;;-0.79;58.82;102656.39;712933;1174;115466;-74
2022/02/28 23:48:11;;;;;;;125.68;43.90;;;;;;;-0.85;59.35;102649.50;713100;1174;114925;-74
